sensor_id;sensor_type;location;lat;lon;timestamp;temperature;humidity
15107;DHT22;7654;45.308;-75.096;2023-09-18T00:00:13;17.70;99.90
15107;DHT22;7654;45.308;-75.096;2023-09-18T00:02:43;17.70;99.90
15107;DHT22;7654;45.308;-75.096;2023-09-18T00:05:14;17.60;99.90
15107;DHT22;7654;45.308;-75.096;2023-09-18T00:07:45;17.60;99.90
15107;DHT22;7654;45.308;-75.096;2023-09-18T00:10:15;17.50;99.90
15107;DHT22;7654;45.308;-75.096;2023-09-18T00:12:47;17.40;99.90
15107;DHT22;7654;45.308;-75.096;2023-09-18T00:15:19;17.40;99.90
15107;DHT22;7654;45.308;-75.096;2023-09-18T00:17:49;17.40;99.90
15107;DHT22;7654;45.308;-75.096;2023-09-18T00:20:21;17.30;99.90
15107;DHT22;7654;45.308;-75.096;2023-09-18T00:22:55;17.30;99.90
15107;DHT22;7654;45.308;-75.096;2023-09-18T00:25:26;17.30;99.90
15107;DHT22;7654;45.308;-75.096;2023-09-18T00:27:58;17.20;99.90
15107;DHT22;7654;45.308;-75.096;2023-09-18T00:30:29;17.10;99.90
15107;DHT22;7654;45.308;-75.096;2023-09-18T00:33:00;17.10;99.90
15107;DHT22;7654;45.308;-75.096;2023-09-18T00:35:30;17.10;99.90
15107;DHT22;7654;45.308;-75.096;2023-09-18T00:38:01;17.10;99.90
15107;DHT22;7654;45.308;-75.096;2023-09-18T00:40:32;17.10;99.90
15107;DHT22;7654;45.308;-75.096;2023-09-18T00:43:05;17.10;99.90
15107;DHT22;7654;45.308;-75.096;2023-09-18T00:45:38;17.10;99.90
15107;DHT22;7654;45.308;-75.096;2023-09-18T00:48:11;17.10;99.90
15107;DHT22;7654;45.308;-75.096;2023-09-18T00:50:42;17.20;99.90
15107;DHT22;7654;45.308;-75.096;2023-09-18T00:53:16;17.20;99.90
15107;DHT22;7654;45.308;-75.096;2023-09-18T00:55:48;17.20;99.90
15107;DHT22;7654;45.308;-75.096;2023-09-18T00:58:20;17.20;99.90
15107;DHT22;7654;45.308;-75.096;2023-09-18T01:00:51;17.20;99.90
15107;DHT22;7654;45.308;-75.096;2023-09-18T01:03:23;17.10;99.90
15107;DHT22;7654;45.308;-75.096;2023-09-18T01:05:54;17.10;99.90
15107;DHT22;7654;45.308;-75.096;2023-09-18T01:08:26;17.10;99.90
15107;DHT22;7654;45.308;-75.096;2023-09-18T01:11:02;17.10;99.90
15107;DHT22;7654;45.308;-75.096;2023-09-18T01:13:41;17.10;99.90
15107;DHT22;7654;45.308;-75.096;2023-09-18T01:16:17;17.00;99.90
15107;DHT22;7654;45.308;-75.096;2023-09-18T01:18:52;17.00;99.90
15107;DHT22;7654;45.308;-75.096;2023-09-18T01:21:25;16.90;99.90
15107;DHT22;7654;45.308;-75.096;2023-09-18T01:23:57;16.90;99.90
15107;DHT22;7654;45.308;-75.096;2023-09-18T01:26:28;16.80;99.90
15107;DHT22;7654;45.308;-75.096;2023-09-18T01:29:05;16.80;99.90
15107;DHT22;7654;45.308;-75.096;2023-09-18T01:31:36;16.90;99.90
15107;DHT22;7654;45.308;-75.096;2023-09-18T01:34:06;17.00;99.90
15107;DHT22;7654;45.308;-75.096;2023-09-18T01:36:37;17.00;99.90
15107;DHT22;7654;45.308;-75.096;2023-09-18T01:39:09;17.00;99.90
15107;DHT22;7654;45.308;-75.096;2023-09-18T01:41:41;16.90;99.90
15107;DHT22;7654;45.308;-75.096;2023-09-18T01:44:12;16.90;99.90
15107;DHT22;7654;45.308;-75.096;2023-09-18T01:46:43;16.80;99.90
15107;DHT22;7654;45.308;-75.096;2023-09-18T01:49:14;16.80;99.90
15107;DHT22;7654;45.308;-75.096;2023-09-18T01:51:46;16.80;99.90
15107;DHT22;7654;45.308;-75.096;2023-09-18T01:54:19;16.70;99.90
15107;DHT22;7654;45.308;-75.096;2023-09-18T01:56:50;16.60;99.90
15107;DHT22;7654;45.308;-75.096;2023-09-18T01:59:22;16.60;99.90
15107;DHT22;7654;45.308;-75.096;2023-09-18T02:01:56;16.50;99.90
15107;DHT22;7654;45.308;-75.096;2023-09-18T02:04:34;16.40;99.90
15107;DHT22;7654;45.308;-75.096;2023-09-18T02:07:25;16.30;99.90
15107;DHT22;7654;45.308;-75.096;2023-09-18T02:09:57;16.20;99.90
15107;DHT22;7654;45.308;-75.096;2023-09-18T02:12:28;16.20;99.90
15107;DHT22;7654;45.308;-75.096;2023-09-18T02:15:03;16.20;99.90
15107;DHT22;7654;45.308;-75.096;2023-09-18T02:17:35;16.20;99.90
15107;DHT22;7654;45.308;-75.096;2023-09-18T02:20:09;16.10;99.90
15107;DHT22;7654;45.308;-75.096;2023-09-18T02:22:41;16.10;99.90
15107;DHT22;7654;45.308;-75.096;2023-09-18T02:25:19;16.10;99.90
15107;DHT22;7654;45.308;-75.096;2023-09-18T02:27:53;16.00;99.90
15107;DHT22;7654;45.308;-75.096;2023-09-18T02:30:26;16.00;99.90
15107;DHT22;7654;45.308;-75.096;2023-09-18T02:32:57;15.90;99.90
15107;DHT22;7654;45.308;-75.096;2023-09-18T02:35:28;16.00;99.90
15107;DHT22;7654;45.308;-75.096;2023-09-18T02:37:58;15.90;99.90
15107;DHT22;7654;45.308;-75.096;2023-09-18T02:40:32;15.90;99.90
15107;DHT22;7654;45.308;-75.096;2023-09-18T02:43:03;15.90;99.90
15107;DHT22;7654;45.308;-75.096;2023-09-18T02:45:33;15.90;99.90
15107;DHT22;7654;45.308;-75.096;2023-09-18T02:48:04;16.00;99.90
15107;DHT22;7654;45.308;-75.096;2023-09-18T02:50:35;16.00;99.90
15107;DHT22;7654;45.308;-75.096;2023-09-18T02:53:06;16.00;99.90
15107;DHT22;7654;45.308;-75.096;2023-09-18T02:55:39;16.00;99.90
15107;DHT22;7654;45.308;-75.096;2023-09-18T02:58:10;16.10;99.90
15107;DHT22;7654;45.308;-75.096;2023-09-18T03:00:42;16.10;99.90
15107;DHT22;7654;45.308;-75.096;2023-09-18T03:03:14;16.10;99.90
15107;DHT22;7654;45.308;-75.096;2023-09-18T03:05:46;16.10;99.90
15107;DHT22;7654;45.308;-75.096;2023-09-18T03:08:17;16.20;99.90
15107;DHT22;7654;45.308;-75.096;2023-09-18T03:10:49;16.20;99.90
15107;DHT22;7654;45.308;-75.096;2023-09-18T03:13:21;16.20;99.90
15107;DHT22;7654;45.308;-75.096;2023-09-18T03:15:51;16.20;99.90
15107;DHT22;7654;45.308;-75.096;2023-09-18T03:18:22;16.10;99.90
15107;DHT22;7654;45.308;-75.096;2023-09-18T03:20:52;16.00;99.90
15107;DHT22;7654;45.308;-75.096;2023-09-18T03:23:22;15.90;99.90
15107;DHT22;7654;45.308;-75.096;2023-09-18T03:25:55;15.90;99.90
15107;DHT22;7654;45.308;-75.096;2023-09-18T03:28:25;15.80;99.90
15107;DHT22;7654;45.308;-75.096;2023-09-18T03:30:55;15.70;99.90
15107;DHT22;7654;45.308;-75.096;2023-09-18T03:33:26;15.60;99.90
15107;DHT22;7654;45.308;-75.096;2023-09-18T03:35:56;15.50;99.90
15107;DHT22;7654;45.308;-75.096;2023-09-18T03:38:27;15.60;99.90
15107;DHT22;7654;45.308;-75.096;2023-09-18T03:41:01;15.60;99.90
15107;DHT22;7654;45.308;-75.096;2023-09-18T03:43:32;15.60;99.90
15107;DHT22;7654;45.308;-75.096;2023-09-18T03:46:06;15.60;99.90
15107;DHT22;7654;45.308;-75.096;2023-09-18T03:48:37;15.70;99.90
15107;DHT22;7654;45.308;-75.096;2023-09-18T03:51:07;15.60;99.90
15107;DHT22;7654;45.308;-75.096;2023-09-18T03:53:38;15.60;99.90
15107;DHT22;7654;45.308;-75.096;2023-09-18T03:56:10;15.60;99.90
15107;DHT22;7654;45.308;-75.096;2023-09-18T03:58:41;15.60;99.90
15107;DHT22;7654;45.308;-75.096;2023-09-18T04:01:13;15.50;99.90
15107;DHT22;7654;45.308;-75.096;2023-09-18T04:03:44;15.50;99.90
15107;DHT22;7654;45.308;-75.096;2023-09-18T04:06:14;15.40;99.90
15107;DHT22;7654;45.308;-75.096;2023-09-18T04:08:47;15.40;99.90
15107;DHT22;7654;45.308;-75.096;2023-09-18T04:11:20;15.30;99.90
15107;DHT22;7654;45.308;-75.096;2023-09-18T04:13:54;15.20;99.90
15107;DHT22;7654;45.308;-75.096;2023-09-18T04:16:25;15.20;99.90
15107;DHT22;7654;45.308;-75.096;2023-09-18T04:18:56;15.20;99.90
15107;DHT22;7654;45.308;-75.096;2023-09-18T04:21:26;15.20;99.90
15107;DHT22;7654;45.308;-75.096;2023-09-18T04:23:57;15.20;99.90
15107;DHT22;7654;45.308;-75.096;2023-09-18T04:26:29;15.20;99.90
15107;DHT22;7654;45.308;-75.096;2023-09-18T04:29:01;15.20;99.90
15107;DHT22;7654;45.308;-75.096;2023-09-18T04:31:31;15.20;99.90
15107;DHT22;7654;45.308;-75.096;2023-09-18T04:34:02;15.20;99.90
15107;DHT22;7654;45.308;-75.096;2023-09-18T04:36:33;15.20;99.90
15107;DHT22;7654;45.308;-75.096;2023-09-18T04:39:05;15.10;99.90
15107;DHT22;7654;45.308;-75.096;2023-09-18T04:41:37;15.10;99.90
15107;DHT22;7654;45.308;-75.096;2023-09-18T04:44:07;15.00;99.90
15107;DHT22;7654;45.308;-75.096;2023-09-18T04:46:41;15.00;99.90
15107;DHT22;7654;45.308;-75.096;2023-09-18T04:49:12;14.90;99.90
15107;DHT22;7654;45.308;-75.096;2023-09-18T04:51:43;14.90;99.90
15107;DHT22;7654;45.308;-75.096;2023-09-18T04:54:13;14.80;99.90
15107;DHT22;7654;45.308;-75.096;2023-09-18T04:56:45;14.80;99.90
15107;DHT22;7654;45.308;-75.096;2023-09-18T04:59:15;14.80;99.90
15107;DHT22;7654;45.308;-75.096;2023-09-18T05:01:46;14.80;99.90
15107;DHT22;7654;45.308;-75.096;2023-09-18T05:04:16;14.80;99.90
15107;DHT22;7654;45.308;-75.096;2023-09-18T05:06:46;14.80;99.90
15107;DHT22;7654;45.308;-75.096;2023-09-18T05:09:17;14.90;99.90
15107;DHT22;7654;45.308;-75.096;2023-09-18T05:11:49;14.90;99.90
15107;DHT22;7654;45.308;-75.096;2023-09-18T05:14:19;15.00;99.90
15107;DHT22;7654;45.308;-75.096;2023-09-18T05:16:50;15.00;99.90
15107;DHT22;7654;45.308;-75.096;2023-09-18T05:19:20;15.00;99.90
15107;DHT22;7654;45.308;-75.096;2023-09-18T05:21:50;15.10;99.90
15107;DHT22;7654;45.308;-75.096;2023-09-18T05:24:21;15.10;99.90
15107;DHT22;7654;45.308;-75.096;2023-09-18T05:26:57;15.10;99.90
15107;DHT22;7654;45.308;-75.096;2023-09-18T05:29:27;15.10;99.90
15107;DHT22;7654;45.308;-75.096;2023-09-18T05:31:57;15.00;99.90
15107;DHT22;7654;45.308;-75.096;2023-09-18T05:34:28;14.90;99.90
15107;DHT22;7654;45.308;-75.096;2023-09-18T05:37:00;14.90;99.90
15107;DHT22;7654;45.308;-75.096;2023-09-18T05:39:30;14.90;99.90
15107;DHT22;7654;45.308;-75.096;2023-09-18T05:42:02;14.80;99.90
15107;DHT22;7654;45.308;-75.096;2023-09-18T05:44:33;14.70;99.90
15107;DHT22;7654;45.308;-75.096;2023-09-18T05:47:03;14.60;99.90
15107;DHT22;7654;45.308;-75.096;2023-09-18T05:49:34;14.60;99.90
15107;DHT22;7654;45.308;-75.096;2023-09-18T05:52:04;14.50;99.90
15107;DHT22;7654;45.308;-75.096;2023-09-18T05:54:35;14.50;99.90
15107;DHT22;7654;45.308;-75.096;2023-09-18T05:57:07;14.50;99.90
15107;DHT22;7654;45.308;-75.096;2023-09-18T05:59:38;14.40;99.90
15107;DHT22;7654;45.308;-75.096;2023-09-18T06:02:08;14.40;99.90
15107;DHT22;7654;45.308;-75.096;2023-09-18T06:04:42;14.40;99.90
15107;DHT22;7654;45.308;-75.096;2023-09-18T06:07:13;14.30;99.90
15107;DHT22;7654;45.308;-75.096;2023-09-18T06:09:43;14.30;99.90
15107;DHT22;7654;45.308;-75.096;2023-09-18T06:12:15;14.30;99.90
15107;DHT22;7654;45.308;-75.096;2023-09-18T06:14:45;14.20;99.90
15107;DHT22;7654;45.308;-75.096;2023-09-18T06:17:16;14.20;99.90
15107;DHT22;7654;45.308;-75.096;2023-09-18T06:19:47;14.30;99.90
15107;DHT22;7654;45.308;-75.096;2023-09-18T06:22:17;14.30;99.90
15107;DHT22;7654;45.308;-75.096;2023-09-18T06:24:47;14.30;99.90
15107;DHT22;7654;45.308;-75.096;2023-09-18T06:27:20;14.30;99.90
15107;DHT22;7654;45.308;-75.096;2023-09-18T06:29:51;14.30;99.90
15107;DHT22;7654;45.308;-75.096;2023-09-18T06:32:21;14.30;99.90
15107;DHT22;7654;45.308;-75.096;2023-09-18T06:34:52;14.20;99.90
15107;DHT22;7654;45.308;-75.096;2023-09-18T06:37:22;14.20;99.90
15107;DHT22;7654;45.308;-75.096;2023-09-18T06:39:52;14.20;99.90
15107;DHT22;7654;45.308;-75.096;2023-09-18T06:42:25;14.20;99.90
15107;DHT22;7654;45.308;-75.096;2023-09-18T06:44:55;14.10;99.90
15107;DHT22;7654;45.308;-75.096;2023-09-18T06:47:25;14.10;99.90
15107;DHT22;7654;45.308;-75.096;2023-09-18T06:49:56;14.10;99.90
15107;DHT22;7654;45.308;-75.096;2023-09-18T06:52:28;14.10;99.90
15107;DHT22;7654;45.308;-75.096;2023-09-18T06:54:59;14.10;99.90
15107;DHT22;7654;45.308;-75.096;2023-09-18T06:57:31;14.00;99.90
15107;DHT22;7654;45.308;-75.096;2023-09-18T07:00:02;14.00;99.90
15107;DHT22;7654;45.308;-75.096;2023-09-18T07:02:33;13.90;99.90
15107;DHT22;7654;45.308;-75.096;2023-09-18T07:05:04;13.80;99.90
15107;DHT22;7654;45.308;-75.096;2023-09-18T07:07:35;13.70;99.90
15107;DHT22;7654;45.308;-75.096;2023-09-18T07:10:05;13.70;99.90
15107;DHT22;7654;45.308;-75.096;2023-09-18T07:12:38;13.60;99.90
15107;DHT22;7654;45.308;-75.096;2023-09-18T07:15:09;13.70;99.90
15107;DHT22;7654;45.308;-75.096;2023-09-18T07:17:39;13.60;99.90
15107;DHT22;7654;45.308;-75.096;2023-09-18T07:20:11;13.70;99.90
15107;DHT22;7654;45.308;-75.096;2023-09-18T07:22:47;13.70;99.90
15107;DHT22;7654;45.308;-75.096;2023-09-18T07:25:18;13.70;99.90
15107;DHT22;7654;45.308;-75.096;2023-09-18T07:27:50;13.70;99.90
15107;DHT22;7654;45.308;-75.096;2023-09-18T07:30:21;13.60;99.90
15107;DHT22;7654;45.308;-75.096;2023-09-18T07:32:55;13.60;99.90
15107;DHT22;7654;45.308;-75.096;2023-09-18T07:35:26;13.60;99.90
15107;DHT22;7654;45.308;-75.096;2023-09-18T07:37:56;13.60;99.90
15107;DHT22;7654;45.308;-75.096;2023-09-18T07:40:27;13.60;99.90
15107;DHT22;7654;45.308;-75.096;2023-09-18T07:42:59;13.60;99.90
15107;DHT22;7654;45.308;-75.096;2023-09-18T07:45:29;13.60;99.90
15107;DHT22;7654;45.308;-75.096;2023-09-18T07:48:00;13.60;99.90
15107;DHT22;7654;45.308;-75.096;2023-09-18T07:50:30;13.60;99.90
15107;DHT22;7654;45.308;-75.096;2023-09-18T07:53:02;13.70;99.90
15107;DHT22;7654;45.308;-75.096;2023-09-18T07:55:32;13.70;99.90
15107;DHT22;7654;45.308;-75.096;2023-09-18T07:58:05;13.70;99.90
15107;DHT22;7654;45.308;-75.096;2023-09-18T08:00:35;13.80;99.90
15107;DHT22;7654;45.308;-75.096;2023-09-18T08:03:05;13.70;99.90
15107;DHT22;7654;45.308;-75.096;2023-09-18T08:05:36;13.70;99.90
15107;DHT22;7654;45.308;-75.096;2023-09-18T08:08:06;13.60;99.90
15107;DHT22;7654;45.308;-75.096;2023-09-18T08:10:37;13.60;99.90
15107;DHT22;7654;45.308;-75.096;2023-09-18T08:13:11;13.60;99.90
15107;DHT22;7654;45.308;-75.096;2023-09-18T08:15:41;13.50;99.90
15107;DHT22;7654;45.308;-75.096;2023-09-18T08:18:12;13.50;99.90
15107;DHT22;7654;45.308;-75.096;2023-09-18T08:20:44;13.40;99.90
15107;DHT22;7654;45.308;-75.096;2023-09-18T08:23:14;13.30;99.90
15107;DHT22;7654;45.308;-75.096;2023-09-18T08:25:45;13.30;99.90
15107;DHT22;7654;45.308;-75.096;2023-09-18T08:28:17;13.30;99.90
15107;DHT22;7654;45.308;-75.096;2023-09-18T08:30:47;13.40;99.90
15107;DHT22;7654;45.308;-75.096;2023-09-18T08:33:18;13.40;99.90
15107;DHT22;7654;45.308;-75.096;2023-09-18T08:35:48;13.40;99.90
15107;DHT22;7654;45.308;-75.096;2023-09-18T08:38:19;13.40;99.90
15107;DHT22;7654;45.308;-75.096;2023-09-18T08:40:49;13.50;99.90
15107;DHT22;7654;45.308;-75.096;2023-09-18T08:43:24;13.40;99.90
15107;DHT22;7654;45.308;-75.096;2023-09-18T08:45:56;13.40;99.90
15107;DHT22;7654;45.308;-75.096;2023-09-18T08:48:29;13.30;99.90
15107;DHT22;7654;45.308;-75.096;2023-09-18T08:51:03;13.30;99.90
15107;DHT22;7654;45.308;-75.096;2023-09-18T08:53:35;13.30;99.90
15107;DHT22;7654;45.308;-75.096;2023-09-18T08:56:06;13.30;99.90
15107;DHT22;7654;45.308;-75.096;2023-09-18T08:58:40;13.20;99.90
15107;DHT22;7654;45.308;-75.096;2023-09-18T09:01:11;13.20;99.90
15107;DHT22;7654;45.308;-75.096;2023-09-18T09:03:42;13.10;99.90
15107;DHT22;7654;45.308;-75.096;2023-09-18T09:06:13;13.10;99.90
15107;DHT22;7654;45.308;-75.096;2023-09-18T09:08:44;13.10;99.90
15107;DHT22;7654;45.308;-75.096;2023-09-18T09:11:14;13.10;99.90
15107;DHT22;7654;45.308;-75.096;2023-09-18T09:13:46;13.10;99.90
15107;DHT22;7654;45.308;-75.096;2023-09-18T09:16:17;13.20;99.90
15107;DHT22;7654;45.308;-75.096;2023-09-18T09:18:49;13.20;99.90
15107;DHT22;7654;45.308;-75.096;2023-09-18T09:21:20;13.20;99.90
15107;DHT22;7654;45.308;-75.096;2023-09-18T09:23:52;13.20;99.90
15107;DHT22;7654;45.308;-75.096;2023-09-18T09:26:24;13.20;99.90
15107;DHT22;7654;45.308;-75.096;2023-09-18T09:28:56;13.30;99.90
15107;DHT22;7654;45.308;-75.096;2023-09-18T09:31:27;13.30;99.90
15107;DHT22;7654;45.308;-75.096;2023-09-18T09:33:59;13.30;99.90
15107;DHT22;7654;45.308;-75.096;2023-09-18T09:36:33;13.30;99.90
15107;DHT22;7654;45.308;-75.096;2023-09-18T09:39:05;13.30;99.90
15107;DHT22;7654;45.308;-75.096;2023-09-18T09:41:36;13.20;99.90
15107;DHT22;7654;45.308;-75.096;2023-09-18T09:44:09;13.20;99.90
15107;DHT22;7654;45.308;-75.096;2023-09-18T09:46:46;13.20;99.90
15107;DHT22;7654;45.308;-75.096;2023-09-18T09:49:17;13.20;99.90
15107;DHT22;7654;45.308;-75.096;2023-09-18T09:51:49;13.20;99.90
15107;DHT22;7654;45.308;-75.096;2023-09-18T09:54:32;13.10;99.90
15107;DHT22;7654;45.308;-75.096;2023-09-18T09:57:07;13.10;99.90
15107;DHT22;7654;45.308;-75.096;2023-09-18T09:59:39;13.10;99.90
15107;DHT22;7654;45.308;-75.096;2023-09-18T10:02:13;13.10;99.90
15107;DHT22;7654;45.308;-75.096;2023-09-18T10:04:49;13.10;99.90
15107;DHT22;7654;45.308;-75.096;2023-09-18T10:07:20;13.10;99.90
15107;DHT22;7654;45.308;-75.096;2023-09-18T10:09:51;13.20;99.90
15107;DHT22;7654;45.308;-75.096;2023-09-18T10:12:22;13.20;99.90
15107;DHT22;7654;45.308;-75.096;2023-09-18T10:14:56;13.30;99.90
15107;DHT22;7654;45.308;-75.096;2023-09-18T10:17:30;13.30;99.90
15107;DHT22;7654;45.308;-75.096;2023-09-18T10:20:06;13.40;99.90
15107;DHT22;7654;45.308;-75.096;2023-09-18T10:22:46;13.30;99.90
15107;DHT22;7654;45.308;-75.096;2023-09-18T10:25:21;13.30;99.90
15107;DHT22;7654;45.308;-75.096;2023-09-18T10:27:52;13.30;99.90
15107;DHT22;7654;45.308;-75.096;2023-09-18T10:30:29;13.20;99.90
15107;DHT22;7654;45.308;-75.096;2023-09-18T10:33:03;13.10;99.90
15107;DHT22;7654;45.308;-75.096;2023-09-18T10:35:36;13.10;99.90
15107;DHT22;7654;45.308;-75.096;2023-09-18T10:38:07;13.10;99.90
15107;DHT22;7654;45.308;-75.096;2023-09-18T10:40:38;13.10;99.90
15107;DHT22;7654;45.308;-75.096;2023-09-18T10:43:10;13.00;99.90
15107;DHT22;7654;45.308;-75.096;2023-09-18T10:45:43;13.00;99.90
15107;DHT22;7654;45.308;-75.096;2023-09-18T10:48:14;12.90;99.90
15107;DHT22;7654;45.308;-75.096;2023-09-18T10:50:47;12.90;99.90
15107;DHT22;7654;45.308;-75.096;2023-09-18T10:53:19;12.90;99.90
15107;DHT22;7654;45.308;-75.096;2023-09-18T10:55:51;12.90;99.90
15107;DHT22;7654;45.308;-75.096;2023-09-18T10:58:25;12.90;99.90
15107;DHT22;7654;45.308;-75.096;2023-09-18T11:00:59;12.80;99.90
15107;DHT22;7654;45.308;-75.096;2023-09-18T11:03:29;12.80;99.90
15107;DHT22;7654;45.308;-75.096;2023-09-18T11:06:04;12.70;99.90
15107;DHT22;7654;45.308;-75.096;2023-09-18T11:08:36;12.60;99.90
15107;DHT22;7654;45.308;-75.096;2023-09-18T11:11:16;12.50;99.90
15107;DHT22;7654;45.308;-75.096;2023-09-18T11:13:50;12.50;99.90
15107;DHT22;7654;45.308;-75.096;2023-09-18T11:16:36;12.50;99.90
15107;DHT22;7654;45.308;-75.096;2023-09-18T11:19:12;12.60;99.90
15107;DHT22;7654;45.308;-75.096;2023-09-18T11:21:47;12.60;99.90
15107;DHT22;7654;45.308;-75.096;2023-09-18T11:24:19;12.60;99.90
15107;DHT22;7654;45.308;-75.096;2023-09-18T11:26:51;12.50;99.90
15107;DHT22;7654;45.308;-75.096;2023-09-18T11:29:22;12.50;99.90
15107;DHT22;7654;45.308;-75.096;2023-09-18T11:31:57;12.50;99.90
15107;DHT22;7654;45.308;-75.096;2023-09-18T11:34:33;12.50;99.90
15107;DHT22;7654;45.308;-75.096;2023-09-18T11:37:19;12.50;99.90
15107;DHT22;7654;45.308;-75.096;2023-09-18T11:39:50;12.50;99.90
15107;DHT22;7654;45.308;-75.096;2023-09-18T11:42:21;12.50;99.90
15107;DHT22;7654;45.308;-75.096;2023-09-18T11:44:55;12.60;99.90
15107;DHT22;7654;45.308;-75.096;2023-09-18T11:47:29;12.60;99.90
15107;DHT22;7654;45.308;-75.096;2023-09-18T11:50:00;12.70;99.90
15107;DHT22;7654;45.308;-75.096;2023-09-18T11:52:35;12.70;99.90
15107;DHT22;7654;45.308;-75.096;2023-09-18T11:55:06;12.70;99.90
15107;DHT22;7654;45.308;-75.096;2023-09-18T11:57:38;12.80;99.90
15107;DHT22;7654;45.308;-75.096;2023-09-18T12:00:19;12.90;99.90
15107;DHT22;7654;45.308;-75.096;2023-09-18T12:02:53;13.00;99.90
15107;DHT22;7654;45.308;-75.096;2023-09-18T12:05:24;13.20;99.90
15107;DHT22;7654;45.308;-75.096;2023-09-18T12:07:54;13.50;99.90
15107;DHT22;7654;45.308;-75.096;2023-09-18T12:10:26;13.70;99.90
15107;DHT22;7654;45.308;-75.096;2023-09-18T12:12:56;14.00;99.90
15107;DHT22;7654;45.308;-75.096;2023-09-18T12:15:28;14.30;99.90
15107;DHT22;7654;45.308;-75.096;2023-09-18T12:18:07;14.50;99.90
15107;DHT22;7654;45.308;-75.096;2023-09-18T12:20:46;14.70;99.90
15107;DHT22;7654;45.308;-75.096;2023-09-18T12:23:16;14.90;99.90
15107;DHT22;7654;45.308;-75.096;2023-09-18T12:25:49;14.90;99.90
15107;DHT22;7654;45.308;-75.096;2023-09-18T12:28:19;15.00;99.90
15107;DHT22;7654;45.308;-75.096;2023-09-18T12:30:50;15.10;99.90
15107;DHT22;7654;45.308;-75.096;2023-09-18T12:33:25;15.20;99.90
15107;DHT22;7654;45.308;-75.096;2023-09-18T12:35:56;15.30;99.90
15107;DHT22;7654;45.308;-75.096;2023-09-18T12:38:26;15.30;99.90
15107;DHT22;7654;45.308;-75.096;2023-09-18T12:40:57;15.30;99.90
15107;DHT22;7654;45.308;-75.096;2023-09-18T12:43:35;15.40;99.90
15107;DHT22;7654;45.308;-75.096;2023-09-18T12:46:06;15.40;99.90
15107;DHT22;7654;45.308;-75.096;2023-09-18T12:48:41;15.50;99.90
15107;DHT22;7654;45.308;-75.096;2023-09-18T12:51:15;15.50;99.90
15107;DHT22;7654;45.308;-75.096;2023-09-18T12:53:59;15.60;99.90
15107;DHT22;7654;45.308;-75.096;2023-09-18T12:56:40;15.60;99.90
15107;DHT22;7654;45.308;-75.096;2023-09-18T12:59:11;15.70;99.90
15107;DHT22;7654;45.308;-75.096;2023-09-18T13:01:47;15.80;99.90
15107;DHT22;7654;45.308;-75.096;2023-09-18T13:04:19;15.90;99.90
15107;DHT22;7654;45.308;-75.096;2023-09-18T13:07:04;16.00;99.90
15107;DHT22;7654;45.308;-75.096;2023-09-18T13:09:37;16.10;99.90
15107;DHT22;7654;45.308;-75.096;2023-09-18T13:12:08;16.10;99.90
15107;DHT22;7654;45.308;-75.096;2023-09-18T13:14:59;16.10;99.90
15107;DHT22;7654;45.308;-75.096;2023-09-18T13:17:39;16.20;99.90
15107;DHT22;7654;45.308;-75.096;2023-09-18T13:20:18;16.30;99.90
15107;DHT22;7654;45.308;-75.096;2023-09-18T13:22:49;16.30;99.90
15107;DHT22;7654;45.308;-75.096;2023-09-18T13:25:20;16.40;99.90
15107;DHT22;7654;45.308;-75.096;2023-09-18T13:27:52;16.50;99.90
15107;DHT22;7654;45.308;-75.096;2023-09-18T13:30:23;16.60;99.90
15107;DHT22;7654;45.308;-75.096;2023-09-18T13:33:03;16.70;99.90
15107;DHT22;7654;45.308;-75.096;2023-09-18T13:35:37;16.80;99.90
15107;DHT22;7654;45.308;-75.096;2023-09-18T13:38:09;16.90;99.90
15107;DHT22;7654;45.308;-75.096;2023-09-18T13:40:39;17.10;99.90
15107;DHT22;7654;45.308;-75.096;2023-09-18T13:43:10;17.20;99.90
15107;DHT22;7654;45.308;-75.096;2023-09-18T13:45:41;17.20;99.90
15107;DHT22;7654;45.308;-75.096;2023-09-18T13:48:12;17.20;99.90
15107;DHT22;7654;45.308;-75.096;2023-09-18T13:50:46;17.30;99.90
15107;DHT22;7654;45.308;-75.096;2023-09-18T13:53:17;17.40;99.90
15107;DHT22;7654;45.308;-75.096;2023-09-18T13:55:48;17.60;99.90
15107;DHT22;7654;45.308;-75.096;2023-09-18T13:58:18;17.80;99.90
15107;DHT22;7654;45.308;-75.096;2023-09-18T14:00:49;18.00;99.90
15107;DHT22;7654;45.308;-75.096;2023-09-18T14:03:20;18.30;99.90
15107;DHT22;7654;45.308;-75.096;2023-09-18T14:05:54;18.50;99.90
15107;DHT22;7654;45.308;-75.096;2023-09-18T14:08:24;18.70;99.90
15107;DHT22;7654;45.308;-75.096;2023-09-18T14:10:55;18.80;99.90
15107;DHT22;7654;45.308;-75.096;2023-09-18T14:13:25;19.10;99.90
15107;DHT22;7654;45.308;-75.096;2023-09-18T14:15:55;19.20;99.90
15107;DHT22;7654;45.308;-75.096;2023-09-18T14:18:27;19.40;99.90
15107;DHT22;7654;45.308;-75.096;2023-09-18T14:20:59;19.50;99.90
15107;DHT22;7654;45.308;-75.096;2023-09-18T14:23:31;19.60;99.90
15107;DHT22;7654;45.308;-75.096;2023-09-18T14:26:02;19.60;99.90
15107;DHT22;7654;45.308;-75.096;2023-09-18T14:28:33;19.70;99.90
15107;DHT22;7654;45.308;-75.096;2023-09-18T14:31:04;19.80;99.90
15107;DHT22;7654;45.308;-75.096;2023-09-18T14:33:34;19.90;99.90
15107;DHT22;7654;45.308;-75.096;2023-09-18T14:36:07;20.00;99.90
15107;DHT22;7654;45.308;-75.096;2023-09-18T14:38:39;20.00;99.90
15107;DHT22;7654;45.308;-75.096;2023-09-18T14:41:09;20.00;99.90
15107;DHT22;7654;45.308;-75.096;2023-09-18T14:43:39;20.10;99.90
15107;DHT22;7654;45.308;-75.096;2023-09-18T14:46:10;20.10;99.90
15107;DHT22;7654;45.308;-75.096;2023-09-18T14:48:40;20.10;99.90
15107;DHT22;7654;45.308;-75.096;2023-09-18T14:51:12;20.00;99.90
15107;DHT22;7654;45.308;-75.096;2023-09-18T14:53:43;19.80;99.90
15107;DHT22;7654;45.308;-75.096;2023-09-18T14:56:13;19.80;99.90
15107;DHT22;7654;45.308;-75.096;2023-09-18T14:58:44;19.80;99.90
15107;DHT22;7654;45.308;-75.096;2023-09-18T15:01:14;19.90;99.90
15107;DHT22;7654;45.308;-75.096;2023-09-18T15:03:45;19.90;99.90
15107;DHT22;7654;45.308;-75.096;2023-09-18T15:06:18;20.00;99.90
15107;DHT22;7654;45.308;-75.096;2023-09-18T15:08:48;20.00;99.90
15107;DHT22;7654;45.308;-75.096;2023-09-18T15:11:19;20.10;99.90
15107;DHT22;7654;45.308;-75.096;2023-09-18T15:13:49;20.00;99.90
15107;DHT22;7654;45.308;-75.096;2023-09-18T15:16:20;19.90;99.90
15107;DHT22;7654;45.308;-75.096;2023-09-18T15:18:50;19.90;99.90
15107;DHT22;7654;45.308;-75.096;2023-09-18T15:21:26;20.00;99.90
15107;DHT22;7654;45.308;-75.096;2023-09-18T15:23:57;20.00;99.90
15107;DHT22;7654;45.308;-75.096;2023-09-18T15:26:27;20.20;99.90
15107;DHT22;7654;45.308;-75.096;2023-09-18T15:28:58;20.40;99.90
15107;DHT22;7654;45.308;-75.096;2023-09-18T15:31:28;20.60;99.90
15107;DHT22;7654;45.308;-75.096;2023-09-18T15:33:58;20.60;99.90
15107;DHT22;7654;45.308;-75.096;2023-09-18T15:36:30;20.80;99.90
15107;DHT22;7654;45.308;-75.096;2023-09-18T15:39:01;20.90;99.90
15107;DHT22;7654;45.308;-75.096;2023-09-18T15:41:31;20.90;99.90
15107;DHT22;7654;45.308;-75.096;2023-09-18T15:44:03;20.90;99.90